Granton, Wisconsin
Current Conditions -  °F | °C
As of 6:54 PM on Wednesday 22 Oct 2014 (Local Time) from KMFI Reporting Station
Clear Clear  
Wind Chill: 44°   Ceiling: Unl
Heat Index: 47°   Visibility: 10mi
Dew Point: 35°   Wind: 7mph
Humidity: 63%   Direction: 110°ESE
Pressure: 30.18"   Gusts: NA
Location:  44.59°N, 90.46°W
Report Text: KMFI 222354Z AUTO 11006KT 10SM CLR 08/02 A3018 RMK AO2 SLP233 T00830017 10139 20083 56014
Loading
Personal Weather Stations






























Interactive Weather Map
Tropical Storm Tracking
New forecast layout! Learn more

10-Day Weather Forecast

Advertisements
Track Severe Weather on mobile